createdAt,value
2017-08-17T00:01:58.412Z,17.60
2017-08-17T00:04:26.444Z,17.70
2017-08-17T00:06:54.500Z,17.70
2017-08-17T00:09:22.524Z,17.70
2017-08-17T00:11:50.552Z,17.80
2017-08-17T00:14:19.340Z,17.80
2017-08-17T00:16:47.372Z,17.80
2017-08-17T00:19:15.388Z,17.80
2017-08-17T00:21:43.436Z,17.80
2017-08-17T00:24:13.048Z,17.90
2017-08-17T00:26:41.088Z,17.90
2017-08-17T00:29:09.481Z,17.90
2017-08-17T00:31:37.483Z,17.80
2017-08-17T00:34:05.511Z,17.80
2017-08-17T00:36:41.971Z,17.60
2017-08-17T00:39:10.972Z,17.60
2017-08-17T00:41:39.655Z,17.60
2017-08-17T00:44:07.696Z,17.50
2017-08-17T00:46:35.732Z,17.50
2017-08-17T00:49:04.688Z,17.40
2017-08-17T00:51:33.679Z,17.40
2017-08-17T00:54:01.703Z,17.30
2017-08-17T00:56:30.640Z,17.20
2017-08-17T00:58:59.647Z,17.20
2017-08-17T01:01:27.755Z,17.10
2017-08-17T01:03:56.791Z,17.00
2017-08-17T01:06:24.827Z,17.00
2017-08-17T01:08:54.768Z,17.00
2017-08-17T01:11:23.799Z,17.00
2017-08-17T01:13:53.583Z,17.10
2017-08-17T01:16:25.526Z,17.10
2017-08-17T01:18:53.559Z,17.20
2017-08-17T01:21:22.603Z,17.20
2017-08-17T01:23:50.619Z,17.30
2017-08-17T01:26:18.655Z,17.30
2017-08-17T01:28:46.671Z,17.30
2017-08-17T01:31:14.699Z,17.30
2017-08-17T01:33:44.407Z,17.30
2017-08-17T01:36:13.191Z,17.30
2017-08-17T01:38:41.211Z,17.30
2017-08-17T01:41:10.255Z,17.30
2017-08-17T01:43:39.231Z,17.30
2017-08-17T01:46:07.255Z,17.30
2017-08-17T01:48:38.546Z,17.40
2017-08-17T01:51:06.563Z,17.30
2017-08-17T01:53:34.575Z,17.30
2017-08-17T01:56:03.606Z,17.30
2017-08-17T01:58:31.623Z,17.20
2017-08-17T02:00:59.634Z,17.10
2017-08-17T02:03:28.439Z,17.00
2017-08-17T02:05:56.462Z,17.00
2017-08-17T02:08:24.486Z,17.00
2017-08-17T02:10:52.523Z,17.00
2017-08-17T02:13:20.538Z,16.90
2017-08-17T02:15:54.610Z,16.90
2017-08-17T02:18:22.630Z,16.90
2017-08-17T02:20:51.558Z,16.90
2017-08-17T02:23:19.590Z,16.80
2017-08-17T02:25:47.622Z,16.90
2017-08-17T02:28:15.642Z,16.90
2017-08-17T02:30:43.674Z,16.90
2017-08-17T02:33:11.702Z,17.10
2017-08-17T02:35:40.722Z,17.10
2017-08-17T02:38:08.755Z,17.10
2017-08-17T02:40:36.774Z,17.10
2017-08-17T02:43:05.726Z,17.00
2017-08-17T02:45:33.766Z,16.90
2017-08-17T02:48:01.794Z,16.80
2017-08-17T02:50:31.786Z,16.80
2017-08-17T02:52:59.835Z,16.90
2017-08-17T02:55:28.853Z,17.00
2017-08-17T02:57:56.884Z,17.20
2017-08-17T03:00:25.962Z,17.30
2017-08-17T03:02:53.950Z,17.40
2017-08-17T03:05:25.966Z,17.50
2017-08-17T03:07:53.986Z,17.50
2017-08-17T03:10:22.006Z,17.50
2017-08-17T03:12:50.994Z,17.60
2017-08-17T03:15:19.009Z,17.50
2017-08-17T03:17:47.042Z,17.50
2017-08-17T03:20:15.082Z,17.50
2017-08-17T03:22:43.110Z,17.50
2017-08-17T03:25:11.138Z,17.50
2017-08-17T03:27:40.132Z,17.40
2017-08-17T03:30:12.794Z,17.30
2017-08-17T03:32:40.838Z,17.30
2017-08-17T03:35:09.861Z,17.20
2017-08-17T03:37:38.858Z,17.20
2017-08-17T03:40:06.910Z,17.10
2017-08-17T03:42:34.925Z,17.00
2017-08-17T03:45:02.961Z,17.00
2017-08-17T03:47:31.986Z,16.90
2017-08-17T03:50:00.778Z,16.80
2017-08-17T03:52:28.802Z,16.80
2017-08-17T03:54:57.821Z,16.70
2017-08-17T03:57:25.853Z,16.60
2017-08-17T03:59:54.877Z,16.60
2017-08-17T04:02:28.081Z,16.50
2017-08-17T04:04:56.873Z,16.40
2017-08-17T04:07:30.353Z,16.40
2017-08-17T04:09:58.377Z,16.40
2017-08-17T04:12:26.398Z,16.40
2017-08-17T04:14:54.437Z,16.30
2017-08-17T04:17:24.373Z,16.20
2017-08-17T04:19:52.393Z,16.30
2017-08-17T04:22:20.445Z,16.30
2017-08-17T04:24:48.497Z,16.20
2017-08-17T04:27:18.304Z,16.10
2017-08-17T04:29:46.362Z,16.10
2017-08-17T04:32:14.390Z,16.10
2017-08-17T04:34:42.417Z,16.10
2017-08-17T04:37:11.422Z,16.10
2017-08-17T04:39:39.450Z,16.20
2017-08-17T04:42:07.473Z,16.30
2017-08-17T04:44:35.505Z,16.40
2017-08-17T04:47:05.529Z,16.60
2017-08-17T04:49:33.567Z,16.70
2017-08-17T04:52:11.745Z,16.80
2017-08-17T04:54:39.776Z,16.90
2017-08-17T05:11:03.584Z,17.00
2017-08-17T05:13:31.605Z,17.10
2017-08-17T05:16:00.596Z,17.20
2017-08-17T05:18:30.632Z,17.40
2017-08-17T05:20:59.412Z,17.60
2017-08-17T05:23:28.209Z,17.70
2017-08-17T05:25:56.249Z,17.70
2017-08-17T05:28:25.252Z,17.80
2017-08-17T05:30:53.281Z,17.90
2017-08-17T05:33:24.489Z,18.10
2017-08-17T05:35:53.269Z,18.90
2017-08-17T05:38:21.293Z,18.90
2017-08-17T05:40:49.332Z,19.30
2017-08-17T05:43:17.361Z,19.60
2017-08-17T05:45:45.396Z,19.80
2017-08-17T05:48:13.425Z,20.00
2017-08-17T05:50:43.212Z,20.20
2017-08-17T05:53:11.280Z,20.20
2017-08-17T05:55:39.301Z,20.00
2017-08-17T05:58:07.345Z,19.90
2017-08-17T06:00:36.133Z,20.10
2017-08-17T06:03:04.181Z,20.10
2017-08-17T06:05:34.205Z,20.40
2017-08-17T06:08:03.192Z,20.70
2017-08-17T06:10:34.728Z,20.80
2017-08-17T06:13:06.296Z,20.80
2017-08-17T06:15:34.316Z,20.70
2017-08-17T06:18:02.337Z,20.80
2017-08-17T06:20:34.300Z,20.90
2017-08-17T06:23:02.312Z,21.10
2017-08-17T06:25:32.288Z,21.20
2017-08-17T06:28:03.539Z,21.20
2017-08-17T06:30:32.332Z,21.60
2017-08-17T06:33:01.116Z,21.60
2017-08-17T06:35:34.412Z,21.60
2017-08-17T06:38:04.224Z,21.80
2017-08-17T06:40:33.016Z,22.10
2017-08-17T06:43:03.364Z,22.10
2017-08-17T06:45:31.387Z,22.10
2017-08-17T06:47:59.404Z,22.30
2017-08-17T06:50:31.327Z,22.20
2017-08-17T06:53:02.880Z,22.40
2017-08-17T06:55:34.748Z,22.60
2017-08-17T06:58:04.540Z,23.00
2017-08-17T07:00:33.532Z,23.00
2017-08-17T07:03:01.564Z,23.10
2017-08-17T07:05:33.356Z,23.10
2017-08-17T07:08:01.396Z,23.10
2017-08-17T07:10:31.343Z,23.10
2017-08-17T07:12:59.360Z,23.30
2017-08-17T07:15:27.404Z,23.40
2017-08-17T07:17:55.428Z,23.40
2017-08-17T07:20:27.132Z,23.30
2017-08-17T07:22:56.104Z,23.50
2017-08-17T07:25:24.124Z,23.60
2017-08-17T07:27:52.244Z,23.60
2017-08-17T07:30:20.228Z,23.80
2017-08-17T07:32:49.236Z,23.40
2017-08-17T07:35:18.054Z,23.40
2017-08-17T07:37:49.779Z,23.90
2017-08-17T07:40:17.815Z,23.90
2017-08-17T07:42:46.819Z,23.90
2017-08-17T07:45:14.836Z,24.10
2017-08-17T07:47:42.864Z,24.30
2017-08-17T07:50:10.892Z,24.40
2017-08-17T07:52:39.919Z,24.80
2017-08-17T07:55:09.955Z,24.90
2017-08-17T07:57:38.735Z,25.10
2017-08-17T08:00:06.767Z,25.10
2017-08-17T08:02:34.807Z,25.10
2017-08-17T08:05:02.875Z,25.60
2017-08-17T08:07:30.908Z,26.00
2017-08-17T08:09:58.955Z,26.30
2017-08-17T08:12:26.984Z,26.40
2017-08-17T08:14:55.020Z,26.90
2017-08-17T08:17:23.992Z,26.90
2017-08-17T08:19:52.003Z,27.20
2017-08-17T08:22:24.663Z,27.70
2017-08-17T08:24:53.643Z,27.80
2017-08-17T08:27:23.686Z,27.70
2017-08-17T08:29:54.391Z,28.20
2017-08-17T08:32:22.414Z,28.10
2017-08-17T08:34:51.359Z,27.60
2017-08-17T08:37:19.383Z,27.60
2017-08-17T08:39:48.319Z,26.90
2017-08-17T08:42:16.371Z,27.00
2017-08-17T08:44:44.379Z,27.40
2017-08-17T08:47:15.082Z,27.50
2017-08-17T08:49:43.107Z,27.50
2017-08-17T08:52:11.127Z,27.80
2017-08-17T08:54:40.039Z,27.80
2017-08-17T08:57:09.871Z,27.50
2017-08-17T08:59:37.898Z,27.40
2017-08-17T09:02:05.930Z,27.80
2017-08-17T09:04:34.870Z,27.60
2017-08-17T09:07:02.894Z,27.50
2017-08-17T09:09:30.914Z,27.60
2017-08-17T09:11:59.715Z,27.90
2017-08-17T09:14:29.491Z,27.30
2017-08-17T09:16:58.511Z,27.30
2017-08-17T09:19:26.534Z,27.70
2017-08-17T09:21:55.542Z,28.40
2017-08-17T09:24:24.550Z,28.50
2017-08-17T09:26:53.551Z,29.00
2017-08-17T09:29:21.567Z,29.00
2017-08-17T09:31:49.591Z,29.10
2017-08-17T09:34:17.625Z,29.10
2017-08-17T09:36:47.554Z,28.90
2017-08-17T09:39:15.574Z,28.90
2017-08-17T09:41:44.486Z,29.50
2017-08-17T09:44:12.514Z,29.80
2017-08-17T09:46:41.302Z,30.40
2017-08-17T09:49:10.286Z,30.40
2017-08-17T09:51:38.298Z,30.50
2017-08-17T09:54:07.229Z,30.00
2017-08-17T09:56:36.246Z,30.40
2017-08-17T09:59:04.266Z,30.40
2017-08-17T10:01:32.274Z,30.90
2017-08-17T10:04:05.365Z,30.90
2017-08-17T10:06:37.102Z,30.40
2017-08-17T10:09:05.147Z,30.50
2017-08-17T10:11:33.153Z,30.90
2017-08-17T10:14:01.170Z,30.80
2017-08-17T10:16:29.210Z,30.90
2017-08-17T10:18:57.229Z,31.10
2017-08-17T10:21:25.258Z,31.00
2017-08-17T10:23:54.065Z,31.30
2017-08-17T10:26:33.113Z,31.20
2017-08-17T10:29:01.141Z,31.60
2017-08-17T10:31:29.921Z,31.70
2017-08-17T10:33:57.950Z,31.70
2017-08-17T10:36:25.997Z,32.10
2017-08-17T10:38:54.017Z,32.50
2017-08-17T10:41:23.010Z,33.00
2017-08-17T10:43:52.029Z,33.40
2017-08-17T10:46:20.813Z,33.10
2017-08-17T10:48:50.597Z,32.60
2017-08-17T10:51:19.550Z,32.60
2017-08-17T10:53:53.186Z,32.40
2017-08-17T10:56:23.213Z,32.70
2017-08-17T10:58:51.233Z,32.10
2017-08-17T11:01:20.178Z,31.80
2017-08-17T11:03:48.229Z,31.90
2017-08-17T11:06:16.274Z,31.90
2017-08-17T11:08:46.222Z,32.10
2017-08-17T11:11:14.265Z,32.80
2017-08-17T11:13:42.306Z,33.70
2017-08-17T11:16:10.338Z,33.70
2017-08-17T11:18:40.369Z,33.80
2017-08-17T11:21:08.397Z,32.70
2017-08-17T11:23:36.433Z,32.40
2017-08-17T11:26:04.481Z,31.80
2017-08-17T11:28:32.509Z,30.80
2017-08-17T11:31:00.530Z,30.10
2017-08-17T11:33:29.489Z,30.10
2017-08-17T11:35:57.511Z,30.80
2017-08-17T11:38:26.433Z,31.70
2017-08-17T11:40:55.363Z,32.00
2017-08-17T11:43:23.385Z,32.60
2017-08-17T11:45:52.401Z,34.00
2017-08-17T11:48:20.437Z,34.40
2017-08-17T11:50:48.462Z,34.70
2017-08-17T11:53:16.493Z,35.10
2017-08-17T11:55:45.533Z,35.20
2017-08-17T11:58:13.557Z,34.40
2017-08-17T12:00:45.169Z,33.30
2017-08-17T12:03:13.189Z,32.70
2017-08-17T12:08:09.259Z,31.60
2017-08-17T12:10:37.273Z,31.60
2017-08-17T12:13:05.293Z,31.50
2017-08-17T12:15:35.317Z,31.50
2017-08-17T12:18:03.344Z,31.30
2017-08-17T12:20:31.373Z,31.40
2017-08-17T12:22:59.420Z,32.20
2017-08-17T12:25:27.436Z,32.90
2017-08-17T12:27:58.208Z,32.70
2017-08-17T12:30:28.268Z,32.80
2017-08-17T12:32:56.304Z,32.70
2017-08-17T12:35:29.725Z,32.70
2017-08-17T12:38:00.444Z,33.90
2017-08-17T12:40:28.501Z,33.80
2017-08-17T12:42:57.425Z,33.50
2017-08-17T12:45:26.212Z,32.90
2017-08-17T12:47:59.888Z,32.90
2017-08-17T12:50:28.884Z,32.90
2017-08-17T12:52:56.909Z,32.80
2017-08-17T12:55:24.952Z,32.30
2017-08-17T12:57:52.992Z,32.10
2017-08-17T13:00:21.020Z,32.40
2017-08-17T13:02:50.076Z,32.20
2017-08-17T13:05:20.768Z,32.10
2017-08-17T13:07:48.792Z,32.10
2017-08-17T13:10:16.836Z,32.40
2017-08-17T13:12:48.473Z,32.40
2017-08-17T13:15:21.084Z,32.30
2017-08-17T13:17:49.885Z,32.00
2017-08-17T13:20:18.840Z,32.00
2017-08-17T13:22:47.773Z,31.50
2017-08-17T13:25:15.796Z,31.40
2017-08-17T13:27:43.864Z,31.40
2017-08-17T13:30:12.868Z,31.10
2017-08-17T13:32:44.200Z,30.90
2017-08-17T13:35:12.220Z,30.80
2017-08-17T13:37:41.204Z,30.70
2017-08-17T13:40:10.172Z,30.80
2017-08-17T13:42:38.192Z,30.80
2017-08-17T13:45:06.234Z,30.90
2017-08-17T13:47:35.024Z,31.40
2017-08-17T13:50:03.052Z,31.40
2017-08-17T13:52:31.076Z,31.60
2017-08-17T13:54:59.092Z,31.70
2017-08-17T13:57:27.124Z,31.80
2017-08-17T13:59:55.152Z,31.40
2017-08-17T14:02:24.940Z,31.10
2017-08-17T14:04:52.967Z,31.10
2017-08-17T14:07:20.994Z,31.00
2017-08-17T14:09:49.008Z,30.70
2017-08-17T14:12:17.944Z,30.60
2017-08-17T14:14:45.992Z,30.50
2017-08-17T14:17:14.004Z,30.40
2017-08-17T14:19:43.836Z,29.70
2017-08-17T14:22:12.064Z,29.70
2017-08-17T14:24:41.060Z,28.90
2017-08-17T14:27:09.283Z,28.00
2017-08-17T14:29:37.358Z,27.10
2017-08-17T14:32:06.328Z,25.80
2017-08-17T14:34:49.180Z,23.80
2017-08-17T14:37:17.204Z,23.70
2017-08-17T14:39:45.219Z,23.40
2017-08-17T14:42:14.272Z,23.40
2017-08-17T14:44:42.292Z,23.80
2017-08-17T14:47:11.307Z,24.90
2017-08-17T14:49:39.397Z,26.20
2017-08-17T14:52:07.660Z,27.50
2017-08-17T14:54:37.671Z,29.30
2017-08-17T14:57:05.696Z,30.60
2017-08-17T14:59:33.719Z,31.70
2017-08-17T15:02:02.715Z,31.60
2017-08-17T15:04:31.707Z,31.00
2017-08-17T15:07:01.724Z,30.60
2017-08-17T15:09:29.744Z,31.70
2017-08-17T15:11:58.692Z,32.90
2017-08-17T15:14:26.716Z,32.90
2017-08-17T15:16:56.659Z,32.60
2017-08-17T15:19:26.727Z,32.90
2017-08-17T15:21:56.708Z,33.00
2017-08-17T15:24:24.727Z,33.60
2017-08-17T15:26:52.771Z,34.30
2017-08-17T15:29:21.559Z,34.10
2017-08-17T15:31:51.332Z,34.10
2017-08-17T15:34:19.483Z,34.10
2017-08-17T15:36:47.499Z,33.60
2017-08-17T15:39:16.484Z,33.10
2017-08-17T15:41:44.523Z,32.70
2017-08-17T15:44:13.531Z,33.50
2017-08-17T15:46:42.523Z,33.60
2017-08-17T15:49:10.572Z,33.80
2017-08-17T15:51:38.579Z,33.80
2017-08-17T15:54:06.599Z,34.00
2017-08-17T15:56:40.047Z,34.40
2017-08-17T15:59:09.039Z,34.40
2017-08-17T16:01:37.055Z,35.30
2017-08-17T16:04:05.087Z,35.30
2017-08-17T16:06:33.223Z,34.10
2017-08-17T16:09:01.231Z,33.20
2017-08-17T16:11:32.782Z,33.10
2017-08-17T16:14:01.743Z,32.80
2017-08-17T16:16:31.771Z,32.70
2017-08-17T16:19:00.790Z,33.00
2017-08-17T16:21:28.802Z,32.20
2017-08-17T16:24:01.411Z,31.60
2017-08-17T16:26:30.397Z,30.50
2017-08-17T16:28:58.411Z,29.90
2017-08-17T16:31:26.443Z,29.80
2017-08-17T16:33:54.455Z,29.40
2017-08-17T16:36:24.263Z,29.10
2017-08-17T16:38:52.294Z,28.80
2017-08-17T16:41:26.095Z,28.50
2017-08-17T16:43:54.111Z,28.10
2017-08-17T16:46:22.131Z,27.90
2017-08-17T16:48:50.135Z,27.60
2017-08-17T16:51:18.179Z,27.40
2017-08-17T16:53:46.183Z,27.70
2017-08-17T16:56:15.058Z,28.10
2017-08-17T16:58:43.863Z,28.30
2017-08-17T17:01:11.895Z,28.30
2017-08-17T17:03:40.811Z,27.90
2017-08-17T17:06:10.607Z,27.40
2017-08-17T17:08:40.394Z,27.20
2017-08-17T17:11:08.415Z,27.20
2017-08-17T17:13:36.446Z,26.90
2017-08-17T17:16:04.478Z,26.50
2017-08-17T17:18:32.518Z,26.20
2017-08-17T17:21:02.308Z,25.80
2017-08-17T17:23:30.326Z,25.80
2017-08-17T17:25:58.342Z,25.70
2017-08-17T17:28:31.627Z,25.50
2017-08-17T17:30:59.642Z,25.40
2017-08-17T17:33:31.062Z,25.20
2017-08-17T17:36:01.754Z,25.10
2017-08-17T17:38:30.795Z,25.10
2017-08-17T17:40:59.582Z,24.90
2017-08-17T17:43:31.595Z,24.80
2017-08-17T17:46:03.303Z,24.80
2017-08-17T17:48:32.099Z,25.00
2017-08-17T17:51:00.130Z,25.00
2017-08-17T17:53:28.142Z,25.10
2017-08-17T17:55:56.178Z,25.10
2017-08-17T17:58:24.186Z,25.00
2017-08-17T18:00:52.206Z,24.80
2017-08-17T18:03:21.211Z,24.70
2017-08-17T18:05:52.854Z,24.50
2017-08-17T18:08:24.434Z,24.30
2017-08-17T18:10:54.222Z,24.10
2017-08-17T18:13:27.722Z,24.00
2017-08-17T18:15:55.742Z,24.00
2017-08-17T18:18:23.766Z,23.90
2017-08-17T18:20:53.594Z,23.80
2017-08-17T18:23:22.378Z,23.60
2017-08-17T18:25:50.398Z,23.60
2017-08-17T18:28:18.430Z,23.50
2017-08-17T18:30:47.398Z,23.40
2017-08-17T18:33:16.386Z,23.30
2017-08-17T18:35:44.406Z,23.20
2017-08-17T18:38:12.431Z,23.00
2017-08-17T18:40:40.457Z,22.90
2017-08-17T18:43:08.501Z,22.80
2017-08-17T18:45:37.305Z,22.60
2017-08-17T18:48:05.338Z,22.60
2017-08-17T18:50:34.269Z,22.60
2017-08-17T18:53:03.215Z,22.40
2017-08-17T18:55:31.289Z,22.20
2017-08-17T18:57:59.313Z,22.10
2017-08-17T19:00:28.390Z,22.00
2017-08-17T19:02:57.325Z,21.90
2017-08-17T19:05:25.369Z,21.90
2017-08-17T19:07:53.385Z,21.90
2017-08-17T19:10:21.401Z,21.80
2017-08-17T19:12:50.389Z,21.80
2017-08-17T19:15:19.325Z,21.80
2017-08-17T19:17:48.341Z,21.70
2017-08-17T19:20:18.357Z,21.60
2017-08-17T19:22:47.149Z,21.50
2017-08-17T19:25:15.177Z,21.50
2017-08-17T19:27:44.205Z,21.50
2017-08-17T19:30:14.005Z,21.40
2017-08-17T19:32:42.041Z,21.40
2017-08-17T19:35:10.257Z,21.30
2017-08-17T19:37:40.066Z,21.20
2017-08-17T19:40:08.154Z,21.20
2017-08-17T19:42:36.997Z,21.10
2017-08-17T19:45:05.001Z,21.10
2017-08-17T19:47:33.790Z,20.90
2017-08-17T19:50:01.821Z,20.90
2017-08-17T19:52:33.641Z,20.70
2017-08-17T19:55:01.657Z,20.70
2017-08-17T19:57:29.689Z,20.70
2017-08-17T19:59:59.661Z,20.60
2017-08-17T20:02:28.677Z,20.60
2017-08-17T20:04:57.473Z,20.50
2017-08-17T20:07:26.260Z,20.40
2017-08-17T20:09:54.309Z,20.40
2017-08-17T20:12:22.344Z,20.40
2017-08-17T20:14:50.376Z,20.40
2017-08-17T20:17:18.416Z,20.40
2017-08-17T20:19:46.441Z,20.50
2017-08-17T20:22:14.460Z,20.50
2017-08-17T20:24:43.465Z,20.50
2017-08-17T20:27:14.164Z,20.50
2017-08-17T20:29:42.201Z,20.50
2017-08-17T20:32:10.249Z,20.40
2017-08-17T20:34:38.277Z,20.30
2017-08-17T20:37:06.293Z,20.20
2017-08-17T20:39:34.341Z,20.10
2017-08-17T20:42:03.141Z,20.00
2017-08-17T20:44:31.932Z,19.90
2017-08-17T20:47:02.701Z,19.90
2017-08-17T20:49:30.729Z,19.90
2017-08-17T20:51:58.752Z,20.00
2017-08-17T20:54:27.796Z,20.00
2017-08-17T20:56:56.584Z,20.10
2017-08-17T20:59:26.368Z,20.10
2017-08-17T21:01:54.400Z,20.10
2017-08-17T21:04:22.429Z,20.00
2017-08-17T21:06:50.456Z,20.10
2017-08-17T21:09:18.544Z,20.10
2017-08-17T21:11:47.548Z,20.20
2017-08-17T21:14:15.572Z,20.10
2017-08-17T21:16:44.608Z,20.10
2017-08-17T21:19:14.614Z,20.10
2017-08-17T21:21:43.608Z,20.00
2017-08-17T21:24:11.644Z,20.00
2017-08-17T21:26:39.676Z,20.00
2017-08-17T21:29:08.467Z,20.00
2017-08-17T21:31:39.200Z,19.90
2017-08-17T21:34:09.192Z,19.90
2017-08-17T21:36:37.220Z,19.90
2017-08-17T21:39:05.260Z,19.80
2017-08-17T21:41:33.292Z,19.70
2017-08-17T21:44:02.300Z,19.60
2017-08-17T21:46:33.039Z,19.70
2017-08-17T21:49:01.063Z,19.70
2017-08-17T21:51:29.090Z,19.70
2017-08-17T21:53:57.144Z,19.70
2017-08-17T21:56:27.160Z,19.60
2017-08-17T21:58:55.192Z,19.60
2017-08-17T22:01:24.235Z,19.60
2017-08-17T22:03:52.259Z,19.60
2017-08-17T22:06:20.291Z,19.60
2017-08-17T22:08:48.364Z,19.60
2017-08-17T22:11:16.396Z,19.60
2017-08-17T22:13:44.427Z,19.60
2017-08-17T22:16:12.483Z,19.70
2017-08-17T22:18:40.516Z,19.80
2017-08-17T22:21:08.539Z,19.80
2017-08-17T22:23:39.692Z,19.80
2017-08-17T22:26:08.731Z,19.90
2017-08-17T22:28:37.639Z,20.00
2017-08-17T22:31:07.635Z,20.10
2017-08-17T22:33:37.427Z,20.00
2017-08-17T22:36:06.431Z,20.00
2017-08-17T22:38:34.463Z,20.00
2017-08-17T22:41:02.487Z,20.00
2017-08-17T22:43:32.279Z,20.00
2017-08-17T22:46:00.351Z,20.00
2017-08-17T22:48:29.259Z,20.00
2017-08-17T22:50:57.287Z,19.90
2017-08-17T22:53:26.239Z,19.90
2017-08-17T22:55:54.259Z,19.90
2017-08-17T22:58:23.259Z,19.90
2017-08-17T23:00:51.443Z,19.70
2017-08-17T23:03:20.235Z,19.70
2017-08-17T23:05:50.042Z,19.60
2017-08-17T23:08:20.071Z,19.60
2017-08-17T23:10:48.863Z,19.40
2017-08-17T23:13:17.655Z,19.40
2017-08-17T23:15:48.367Z,19.40
2017-08-17T23:18:21.655Z,19.40
2017-08-17T23:20:51.679Z,19.40
2017-08-17T23:23:20.470Z,19.40
2017-08-17T23:25:48.502Z,19.30
2017-08-17T23:28:16.558Z,19.30
2017-08-17T23:30:44.594Z,19.40
2017-08-17T23:33:15.310Z,19.40
2017-08-17T23:35:45.118Z,19.40
2017-08-17T23:38:13.150Z,19.40
2017-08-17T23:40:41.178Z,19.50
2017-08-17T23:43:09.258Z,19.50
2017-08-17T23:45:37.282Z,19.40
2017-08-17T23:48:05.363Z,19.30
2017-08-17T23:50:34.366Z,19.30
2017-08-17T23:53:03.351Z,19.20
2017-08-17T23:55:31.383Z,19.20
2017-08-17T23:57:59.423Z,19.00
